In Rescue
 
Open Full Screen Window  High Contrast Mode
Wind Gusting 00 knots
08
May 20, 2019 2:38 PM EDT
Weather Information
Wind Direction
  340 °
Wind Speed
  08 kt (9 mph)
Wind Gust
  00 kt (0 mph)
Altimeter
29.98 in
Visibility
10 SM
Temperature
10° C
50° F
Dewpoint
04° C
39° F
Humidity
67%
1hr Rain Fall
00.00 in.
24hr Rain Fall
00.15 in.
Sky Condition
Overcast @ 2,700 ft
MVFR

METAR KMOP 201838Z AUTO 34008KT 10SM OVC027 10/04 A2998 RMK AO2 T01010041

FAA Disclaimer: The data displayed is for advisory purposes only and is not to be used for flight planning or operations.